Kempton Park, United Kingdom
Current Conditions -  °F | °C
As of 12:20 PM on Monday 26 Jan 2015 (Local Time) from EGLL Reporting Station
Broken Clouds Broken Clouds  
Wind Chill: 50°   Ceiling: 3000
Heat Index: 50°   Visibility: 6mi
Dew Point: 39°   Wind: 7mph
Humidity: 66%   Direction: 340°NNW
Pressure: 30.21"   Gusts: NA
Location:  51.42°N, 0.39°W
Report Text: EGLL 261220Z 34006KT 310V010 9999 SCT022 BKN030 10/04 Q1023 NOSIG
Loading
Personal Weather Stations






























Interactive Weather Map New forecast layout! Learn more

10-Day Weather Forecast

Advertisements
Track Severe Weather on mobile